Terminal Aerodrome Forecast
Issued by NWS Binghamton, NY

Home | Current Version | Previous Version | Text Only | Print | Product List | Glossary On
Versions: 1 2 3 4 5 6 7 8 9 10 11 12 13 14 15 16 17
932
FTUS41 KBGM 171738
TAFSYR
TAF
KSYR 171738Z 1718/1818 10007KT P6SM FEW200
     FM180100 11005KT P6SM BKN100
     FM180400 13008KT P6SM -SHRA OVC070
     FM180800 17010G18KT 6SM -SHRA BR OVC028
     FM181600 20012G21KT P6SM -SHRA BKN035 OVC050=

USA.gov is the U.S. government's official web portal to all federal, state and local government web resources and services.